Plaucheville, Louisiana
Current Conditions -  °F | °C
As of 8:55 PM on Thursday 27 Nov 2014 (Local Time) from KOPL Reporting Station
Clear Clear  
Wind Chill: 41°   Ceiling: Unl
Heat Index: 44°   Visibility: 10mi
Dew Point: 34°   Wind: 6mph
Humidity: 67%   Direction: 20°NNE
Pressure: 30.46"   Gusts: NA
Location:  30.97°N, 91.98°W
Report Text: KOPL 280255Z AUTO 02005KT 10SM CLR 07/01 A3046 RMK AO2 T00660009
Loading
Personal Weather Stations






























Interactive Weather Map New forecast layout! Learn more

10-Day Weather Forecast

Advertisements
Track Severe Weather on mobile